sensor_id;sensor_type;location;lat;lon;timestamp;P1;durP1;ratioP1;P2;durP2;ratioP2
19026;SDS011;9646;52.034;5.554;2022-08-21T00:01:12;4.78;;;2.67;;
19026;SDS011;9646;52.034;5.554;2022-08-21T00:03:41;5.70;;;2.95;;
19026;SDS011;9646;52.034;5.554;2022-08-21T00:06:09;4.35;;;2.45;;
19026;SDS011;9646;52.034;5.554;2022-08-21T00:08:37;4.35;;;2.80;;
19026;SDS011;9646;52.034;5.554;2022-08-21T00:11:04;4.80;;;2.83;;
19026;SDS011;9646;52.034;5.554;2022-08-21T00:13:31;3.65;;;2.60;;
19026;SDS011;9646;52.034;5.554;2022-08-21T00:15:58;5.63;;;2.78;;
19026;SDS011;9646;52.034;5.554;2022-08-21T00:18:26;5.72;;;2.90;;
19026;SDS011;9646;52.034;5.554;2022-08-21T00:20:53;6.05;;;2.60;;
19026;SDS011;9646;52.034;5.554;2022-08-21T00:23:22;5.45;;;2.80;;
19026;SDS011;9646;52.034;5.554;2022-08-21T00:25:49;3.88;;;3.08;;
19026;SDS011;9646;52.034;5.554;2022-08-21T00:28:16;4.78;;;3.03;;
19026;SDS011;9646;52.034;5.554;2022-08-21T00:30:43;6.10;;;3.00;;
19026;SDS011;9646;52.034;5.554;2022-08-21T00:33:11;5.03;;;3.00;;
19026;SDS011;9646;52.034;5.554;2022-08-21T00:35:39;4.53;;;2.67;;
19026;SDS011;9646;52.034;5.554;2022-08-21T00:38:07;3.88;;;2.55;;
19026;SDS011;9646;52.034;5.554;2022-08-21T00:40:38;3.08;;;2.47;;
19026;SDS011;9646;52.034;5.554;2022-08-21T00:43:08;6.18;;;2.60;;
19026;SDS011;9646;52.034;5.554;2022-08-21T00:45:36;5.22;;;2.42;;
19026;SDS011;9646;52.034;5.554;2022-08-21T00:48:03;4.25;;;2.90;;
19026;SDS011;9646;52.034;5.554;2022-08-21T00:50:32;3.92;;;2.50;;
19026;SDS011;9646;52.034;5.554;2022-08-21T00:53:00;4.47;;;2.45;;
19026;SDS011;9646;52.034;5.554;2022-08-21T00:55:28;4.00;;;2.55;;
19026;SDS011;9646;52.034;5.554;2022-08-21T00:57:57;5.63;;;2.97;;
19026;SDS011;9646;52.034;5.554;2022-08-21T01:00:27;4.90;;;2.90;;
19026;SDS011;9646;52.034;5.554;2022-08-21T01:02:55;5.22;;;2.92;;
19026;SDS011;9646;52.034;5.554;2022-08-21T01:05:22;5.00;;;2.63;;
19026;SDS011;9646;52.034;5.554;2022-08-21T01:07:49;5.43;;;3.13;;
19026;SDS011;9646;52.034;5.554;2022-08-21T01:10:17;4.13;;;2.83;;
19026;SDS011;9646;52.034;5.554;2022-08-21T01:12:46;5.47;;;2.80;;
19026;SDS011;9646;52.034;5.554;2022-08-21T01:15:15;4.20;;;2.90;;
19026;SDS011;9646;52.034;5.554;2022-08-21T01:17:43;4.53;;;2.75;;
19026;SDS011;9646;52.034;5.554;2022-08-21T01:20:11;4.57;;;2.90;;
19026;SDS011;9646;52.034;5.554;2022-08-21T01:22:39;3.88;;;2.58;;
19026;SDS011;9646;52.034;5.554;2022-08-21T01:25:08;3.10;;;2.80;;
19026;SDS011;9646;52.034;5.554;2022-08-21T01:27:35;5.00;;;2.97;;
19026;SDS011;9646;52.034;5.554;2022-08-21T01:30:04;4.03;;;3.13;;
19026;SDS011;9646;52.034;5.554;2022-08-21T01:32:34;4.75;;;2.70;;
19026;SDS011;9646;52.034;5.554;2022-08-21T01:35:02;4.57;;;3.40;;
19026;SDS011;9646;52.034;5.554;2022-08-21T01:37:29;5.40;;;3.55;;
19026;SDS011;9646;52.034;5.554;2022-08-21T01:39:58;6.30;;;4.10;;
19026;SDS011;9646;52.034;5.554;2022-08-21T01:42:25;3.75;;;3.28;;
19026;SDS011;9646;52.034;5.554;2022-08-21T01:44:52;6.00;;;3.55;;
19026;SDS011;9646;52.034;5.554;2022-08-21T01:47:19;4.75;;;3.17;;
19026;SDS011;9646;52.034;5.554;2022-08-21T01:49:46;3.60;;;2.78;;
19026;SDS011;9646;52.034;5.554;2022-08-21T01:52:13;5.40;;;2.95;;
19026;SDS011;9646;52.034;5.554;2022-08-21T01:54:40;5.45;;;3.38;;
19026;SDS011;9646;52.034;5.554;2022-08-21T01:57:09;3.83;;;3.25;;
19026;SDS011;9646;52.034;5.554;2022-08-21T01:59:37;6.45;;;3.63;;
19026;SDS011;9646;52.034;5.554;2022-08-21T02:02:04;5.10;;;3.47;;
19026;SDS011;9646;52.034;5.554;2022-08-21T02:04:31;4.45;;;3.05;;
19026;SDS011;9646;52.034;5.554;2022-08-21T02:06:58;6.97;;;3.83;;
19026;SDS011;9646;52.034;5.554;2022-08-21T02:09:26;4.43;;;3.28;;
19026;SDS011;9646;52.034;5.554;2022-08-21T02:11:53;6.32;;;3.60;;
19026;SDS011;9646;52.034;5.554;2022-08-21T02:14:21;5.40;;;3.38;;
19026;SDS011;9646;52.034;5.554;2022-08-21T02:16:48;4.40;;;3.45;;
19026;SDS011;9646;52.034;5.554;2022-08-21T02:19:16;5.00;;;3.25;;
19026;SDS011;9646;52.034;5.554;2022-08-21T02:21:43;5.47;;;3.90;;
19026;SDS011;9646;52.034;5.554;2022-08-21T02:24:10;4.70;;;3.50;;
19026;SDS011;9646;52.034;5.554;2022-08-21T02:26:37;6.70;;;4.10;;
19026;SDS011;9646;52.034;5.554;2022-08-21T02:29:04;5.90;;;4.25;;
19026;SDS011;9646;52.034;5.554;2022-08-21T02:31:33;4.63;;;3.92;;
19026;SDS011;9646;52.034;5.554;2022-08-21T02:34:00;4.95;;;3.67;;
19026;SDS011;9646;52.034;5.554;2022-08-21T02:36:27;5.70;;;4.00;;
19026;SDS011;9646;52.034;5.554;2022-08-21T02:38:54;7.15;;;3.90;;
19026;SDS011;9646;52.034;5.554;2022-08-21T02:41:22;7.55;;;3.70;;
19026;SDS011;9646;52.034;5.554;2022-08-21T02:43:49;5.57;;;3.50;;
19026;SDS011;9646;52.034;5.554;2022-08-21T02:46:18;5.38;;;3.90;;
19026;SDS011;9646;52.034;5.554;2022-08-21T02:48:47;5.15;;;3.33;;
19026;SDS011;9646;52.034;5.554;2022-08-21T02:51:16;6.88;;;3.55;;
19026;SDS011;9646;52.034;5.554;2022-08-21T02:53:44;6.38;;;3.90;;
19026;SDS011;9646;52.034;5.554;2022-08-21T02:56:12;5.35;;;3.50;;
19026;SDS011;9646;52.034;5.554;2022-08-21T02:58:41;7.43;;;4.22;;
19026;SDS011;9646;52.034;5.554;2022-08-21T03:01:09;6.50;;;3.47;;
19026;SDS011;9646;52.034;5.554;2022-08-21T03:03:37;5.72;;;4.03;;
19026;SDS011;9646;52.034;5.554;2022-08-21T03:06:06;5.35;;;3.30;;
19026;SDS011;9646;52.034;5.554;2022-08-21T03:08:35;5.57;;;3.97;;
19026;SDS011;9646;52.034;5.554;2022-08-21T03:11:02;5.13;;;3.72;;
19026;SDS011;9646;52.034;5.554;2022-08-21T03:13:30;4.82;;;3.40;;
19026;SDS011;9646;52.034;5.554;2022-08-21T03:15:57;4.68;;;3.75;;
19026;SDS011;9646;52.034;5.554;2022-08-21T03:18:24;5.88;;;3.38;;
19026;SDS011;9646;52.034;5.554;2022-08-21T03:20:51;5.88;;;3.90;;
19026;SDS011;9646;52.034;5.554;2022-08-21T03:23:20;5.30;;;3.33;;
19026;SDS011;9646;52.034;5.554;2022-08-21T03:25:47;4.32;;;3.28;;
19026;SDS011;9646;52.034;5.554;2022-08-21T03:28:16;6.20;;;3.97;;
19026;SDS011;9646;52.034;5.554;2022-08-21T03:30:44;4.63;;;3.90;;
19026;SDS011;9646;52.034;5.554;2022-08-21T03:33:12;5.47;;;4.28;;
19026;SDS011;9646;52.034;5.554;2022-08-21T03:35:39;8.38;;;4.07;;
19026;SDS011;9646;52.034;5.554;2022-08-21T03:38:07;6.45;;;3.95;;
19026;SDS011;9646;52.034;5.554;2022-08-21T03:40:36;6.18;;;3.85;;
19026;SDS011;9646;52.034;5.554;2022-08-21T03:43:03;6.72;;;3.45;;
19026;SDS011;9646;52.034;5.554;2022-08-21T03:45:30;6.30;;;3.72;;
19026;SDS011;9646;52.034;5.554;2022-08-21T03:47:58;7.05;;;3.60;;
19026;SDS011;9646;52.034;5.554;2022-08-21T03:50:26;4.20;;;3.55;;
19026;SDS011;9646;52.034;5.554;2022-08-21T03:52:53;4.72;;;3.70;;
19026;SDS011;9646;52.034;5.554;2022-08-21T03:55:20;5.78;;;4.03;;
19026;SDS011;9646;52.034;5.554;2022-08-21T03:57:49;4.70;;;3.80;;
19026;SDS011;9646;52.034;5.554;2022-08-21T04:00:16;5.32;;;3.95;;
19026;SDS011;9646;52.034;5.554;2022-08-21T04:02:44;6.00;;;3.35;;
19026;SDS011;9646;52.034;5.554;2022-08-21T04:05:11;5.03;;;3.38;;
19026;SDS011;9646;52.034;5.554;2022-08-21T04:07:38;4.18;;;3.40;;
19026;SDS011;9646;52.034;5.554;2022-08-21T04:10:06;5.18;;;3.35;;
19026;SDS011;9646;52.034;5.554;2022-08-21T04:12:34;4.97;;;3.22;;
19026;SDS011;9646;52.034;5.554;2022-08-21T04:15:03;5.57;;;3.67;;
19026;SDS011;9646;52.034;5.554;2022-08-21T04:17:30;4.72;;;3.28;;
19026;SDS011;9646;52.034;5.554;2022-08-21T04:19:58;4.07;;;2.80;;
19026;SDS011;9646;52.034;5.554;2022-08-21T04:22:25;5.22;;;3.25;;
19026;SDS011;9646;52.034;5.554;2022-08-21T04:24:52;4.20;;;3.10;;
19026;SDS011;9646;52.034;5.554;2022-08-21T04:27:19;5.57;;;3.70;;
19026;SDS011;9646;52.034;5.554;2022-08-21T04:29:46;5.53;;;3.60;;
19026;SDS011;9646;52.034;5.554;2022-08-21T04:32:20;5.18;;;3.45;;
19026;SDS011;9646;52.034;5.554;2022-08-21T04:34:47;5.30;;;3.20;;
19026;SDS011;9646;52.034;5.554;2022-08-21T04:37:14;4.15;;;2.97;;
19026;SDS011;9646;52.034;5.554;2022-08-21T04:39:41;5.28;;;3.30;;
19026;SDS011;9646;52.034;5.554;2022-08-21T04:42:08;7.03;;;3.10;;
19026;SDS011;9646;52.034;5.554;2022-08-21T04:44:36;4.93;;;3.25;;
19026;SDS011;9646;52.034;5.554;2022-08-21T04:47:03;3.47;;;2.92;;
19026;SDS011;9646;52.034;5.554;2022-08-21T04:49:32;3.75;;;3.17;;
19026;SDS011;9646;52.034;5.554;2022-08-21T04:51:59;4.68;;;3.08;;
19026;SDS011;9646;52.034;5.554;2022-08-21T04:54:26;5.03;;;3.20;;
19026;SDS011;9646;52.034;5.554;2022-08-21T04:56:54;3.90;;;3.47;;
19026;SDS011;9646;52.034;5.554;2022-08-21T04:59:25;4.18;;;3.15;;
19026;SDS011;9646;52.034;5.554;2022-08-21T05:01:53;5.55;;;3.30;;
19026;SDS011;9646;52.034;5.554;2022-08-21T05:04:22;4.30;;;3.03;;
19026;SDS011;9646;52.034;5.554;2022-08-21T05:06:51;6.60;;;3.80;;
19026;SDS011;9646;52.034;5.554;2022-08-21T05:09:19;5.32;;;3.10;;
19026;SDS011;9646;52.034;5.554;2022-08-21T05:11:47;6.30;;;3.67;;
19026;SDS011;9646;52.034;5.554;2022-08-21T05:14:15;5.30;;;3.10;;
19026;SDS011;9646;52.034;5.554;2022-08-21T05:16:42;4.50;;;3.10;;
19026;SDS011;9646;52.034;5.554;2022-08-21T05:19:09;6.85;;;3.63;;
19026;SDS011;9646;52.034;5.554;2022-08-21T05:21:37;5.18;;;3.28;;
19026;SDS011;9646;52.034;5.554;2022-08-21T05:24:06;3.65;;;2.70;;
19026;SDS011;9646;52.034;5.554;2022-08-21T05:26:33;4.63;;;3.15;;
19026;SDS011;9646;52.034;5.554;2022-08-21T05:29:01;4.80;;;3.35;;
19026;SDS011;9646;52.034;5.554;2022-08-21T05:31:28;3.92;;;3.35;;
19026;SDS011;9646;52.034;5.554;2022-08-21T05:33:55;6.47;;;3.30;;
19026;SDS011;9646;52.034;5.554;2022-08-21T05:36:22;5.25;;;3.13;;
19026;SDS011;9646;52.034;5.554;2022-08-21T05:38:49;4.57;;;2.80;;
19026;SDS011;9646;52.034;5.554;2022-08-21T05:41:18;6.50;;;3.70;;
19026;SDS011;9646;52.034;5.554;2022-08-21T05:43:45;4.57;;;3.35;;
19026;SDS011;9646;52.034;5.554;2022-08-21T05:46:12;4.38;;;3.22;;
19026;SDS011;9646;52.034;5.554;2022-08-21T05:48:39;4.35;;;3.20;;
19026;SDS011;9646;52.034;5.554;2022-08-21T05:51:07;5.82;;;3.53;;
19026;SDS011;9646;52.034;5.554;2022-08-21T05:53:35;6.78;;;3.40;;
19026;SDS011;9646;52.034;5.554;2022-08-21T05:56:02;8.70;;;4.03;;
19026;SDS011;9646;52.034;5.554;2022-08-21T05:58:31;5.65;;;3.63;;
19026;SDS011;9646;52.034;5.554;2022-08-21T06:00:59;7.70;;;3.83;;
19026;SDS011;9646;52.034;5.554;2022-08-21T06:03:30;6.80;;;3.63;;
19026;SDS011;9646;52.034;5.554;2022-08-21T06:05:57;8.52;;;4.15;;
19026;SDS011;9646;52.034;5.554;2022-08-21T06:08:25;7.45;;;3.88;;
19026;SDS011;9646;52.034;5.554;2022-08-21T06:10:52;7.63;;;4.80;;
19026;SDS011;9646;52.034;5.554;2022-08-21T06:13:20;10.70;;;4.03;;
19026;SDS011;9646;52.034;5.554;2022-08-21T06:15:49;7.30;;;4.25;;
19026;SDS011;9646;52.034;5.554;2022-08-21T06:18:16;8.30;;;3.00;;
19026;SDS011;9646;52.034;5.554;2022-08-21T06:20:44;9.85;;;3.88;;
19026;SDS011;9646;52.034;5.554;2022-08-21T06:23:11;12.05;;;4.82;;
19026;SDS011;9646;52.034;5.554;2022-08-21T06:25:38;10.45;;;3.80;;
19026;SDS011;9646;52.034;5.554;2022-08-21T06:28:06;11.55;;;3.90;;
19026;SDS011;9646;52.034;5.554;2022-08-21T06:30:34;9.80;;;4.55;;
19026;SDS011;9646;52.034;5.554;2022-08-21T06:33:03;8.38;;;3.75;;
19026;SDS011;9646;52.034;5.554;2022-08-21T06:35:31;9.13;;;3.83;;
19026;SDS011;9646;52.034;5.554;2022-08-21T06:37:58;15.80;;;4.38;;
19026;SDS011;9646;52.034;5.554;2022-08-21T06:40:25;13.15;;;4.28;;
19026;SDS011;9646;52.034;5.554;2022-08-21T06:42:52;12.90;;;4.68;;
19026;SDS011;9646;52.034;5.554;2022-08-21T06:45:19;8.63;;;3.72;;
19026;SDS011;9646;52.034;5.554;2022-08-21T06:47:46;7.70;;;3.75;;
19026;SDS011;9646;52.034;5.554;2022-08-21T06:50:15;8.15;;;3.35;;
19026;SDS011;9646;52.034;5.554;2022-08-21T06:52:42;11.38;;;4.47;;
19026;SDS011;9646;52.034;5.554;2022-08-21T06:55:09;9.85;;;4.55;;
19026;SDS011;9646;52.034;5.554;2022-08-21T06:57:36;9.52;;;4.15;;
19026;SDS011;9646;52.034;5.554;2022-08-21T07:00:04;9.48;;;4.43;;
19026;SDS011;9646;52.034;5.554;2022-08-21T07:02:31;8.90;;;3.80;;
19026;SDS011;9646;52.034;5.554;2022-08-21T07:04:59;8.95;;;4.18;;
19026;SDS011;9646;52.034;5.554;2022-08-21T07:07:27;11.50;;;4.32;;
19026;SDS011;9646;52.034;5.554;2022-08-21T07:09:54;9.00;;;4.53;;
19026;SDS011;9646;52.034;5.554;2022-08-21T07:12:21;11.18;;;4.53;;
19026;SDS011;9646;52.034;5.554;2022-08-21T07:14:48;11.05;;;3.85;;
19026;SDS011;9646;52.034;5.554;2022-08-21T07:17:15;14.63;;;4.60;;
19026;SDS011;9646;52.034;5.554;2022-08-21T07:19:43;13.77;;;4.65;;
19026;SDS011;9646;52.034;5.554;2022-08-21T07:22:10;11.40;;;3.63;;
19026;SDS011;9646;52.034;5.554;2022-08-21T07:24:38;9.60;;;4.00;;
19026;SDS011;9646;52.034;5.554;2022-08-21T07:27:05;14.63;;;5.07;;
19026;SDS011;9646;52.034;5.554;2022-08-21T07:29:32;14.20;;;5.80;;
19026;SDS011;9646;52.034;5.554;2022-08-21T07:32:00;12.48;;;4.38;;
19026;SDS011;9646;52.034;5.554;2022-08-21T07:34:27;9.05;;;3.90;;
19026;SDS011;9646;52.034;5.554;2022-08-21T07:36:54;11.48;;;4.57;;
19026;SDS011;9646;52.034;5.554;2022-08-21T07:39:21;12.75;;;4.05;;
19026;SDS011;9646;52.034;5.554;2022-08-21T07:41:49;12.55;;;4.35;;
19026;SDS011;9646;52.034;5.554;2022-08-21T07:44:17;10.80;;;4.22;;
19026;SDS011;9646;52.034;5.554;2022-08-21T07:46:44;12.57;;;4.63;;
19026;SDS011;9646;52.034;5.554;2022-08-21T07:49:11;13.65;;;4.70;;
19026;SDS011;9646;52.034;5.554;2022-08-21T07:51:38;9.82;;;4.15;;
19026;SDS011;9646;52.034;5.554;2022-08-21T07:54:05;14.10;;;4.80;;
19026;SDS011;9646;52.034;5.554;2022-08-21T07:56:33;13.60;;;4.88;;
19026;SDS011;9646;52.034;5.554;2022-08-21T07:59:02;18.17;;;4.35;;
19026;SDS011;9646;52.034;5.554;2022-08-21T08:01:29;11.20;;;4.97;;
19026;SDS011;9646;52.034;5.554;2022-08-21T08:03:56;10.82;;;3.90;;
19026;SDS011;9646;52.034;5.554;2022-08-21T08:06:23;9.80;;;4.15;;
19026;SDS011;9646;52.034;5.554;2022-08-21T08:08:51;13.00;;;5.25;;
19026;SDS011;9646;52.034;5.554;2022-08-21T08:11:18;11.15;;;4.88;;
19026;SDS011;9646;52.034;5.554;2022-08-21T08:13:45;14.25;;;5.10;;
19026;SDS011;9646;52.034;5.554;2022-08-21T08:16:14;14.80;;;4.72;;
19026;SDS011;9646;52.034;5.554;2022-08-21T08:18:41;12.40;;;4.70;;
19026;SDS011;9646;52.034;5.554;2022-08-21T08:21:09;14.63;;;4.85;;
19026;SDS011;9646;52.034;5.554;2022-08-21T08:23:37;11.82;;;4.35;;
19026;SDS011;9646;52.034;5.554;2022-08-21T08:26:04;16.02;;;5.18;;
19026;SDS011;9646;52.034;5.554;2022-08-21T08:28:31;11.70;;;4.72;;
19026;SDS011;9646;52.034;5.554;2022-08-21T08:30:58;11.90;;;4.50;;
19026;SDS011;9646;52.034;5.554;2022-08-21T08:33:27;13.32;;;4.97;;
19026;SDS011;9646;52.034;5.554;2022-08-21T08:35:54;11.80;;;4.22;;
19026;SDS011;9646;52.034;5.554;2022-08-21T08:38:23;11.88;;;4.55;;
19026;SDS011;9646;52.034;5.554;2022-08-21T08:40:52;10.88;;;4.28;;
19026;SDS011;9646;52.034;5.554;2022-08-21T08:43:21;12.38;;;4.32;;
19026;SDS011;9646;52.034;5.554;2022-08-21T08:45:49;15.70;;;4.40;;
19026;SDS011;9646;52.034;5.554;2022-08-21T08:48:21;13.20;;;3.90;;
19026;SDS011;9646;52.034;5.554;2022-08-21T08:50:59;10.52;;;3.85;;
19026;SDS011;9646;52.034;5.554;2022-08-21T08:53:28;11.75;;;3.75;;
19026;SDS011;9646;52.034;5.554;2022-08-21T08:55:57;13.25;;;4.10;;
19026;SDS011;9646;52.034;5.554;2022-08-21T08:58:24;14.20;;;3.80;;
19026;SDS011;9646;52.034;5.554;2022-08-21T09:00:55;9.05;;;3.40;;
19026;SDS011;9646;52.034;5.554;2022-08-21T09:03:23;12.10;;;3.72;;
19026;SDS011;9646;52.034;5.554;2022-08-21T09:05:52;11.00;;;4.03;;
19026;SDS011;9646;52.034;5.554;2022-08-21T09:08:27;13.48;;;3.97;;
19026;SDS011;9646;52.034;5.554;2022-08-21T09:11:02;12.32;;;4.07;;
19026;SDS011;9646;52.034;5.554;2022-08-21T09:13:33;13.30;;;4.25;;
19026;SDS011;9646;52.034;5.554;2022-08-21T09:16:08;9.55;;;3.45;;
19026;SDS011;9646;52.034;5.554;2022-08-21T09:18:39;8.15;;;2.75;;
19026;SDS011;9646;52.034;5.554;2022-08-21T09:21:13;12.10;;;3.30;;
19026;SDS011;9646;52.034;5.554;2022-08-21T09:23:47;10.40;;;3.67;;
19026;SDS011;9646;52.034;5.554;2022-08-21T09:26:17;8.68;;;2.70;;
19026;SDS011;9646;52.034;5.554;2022-08-21T09:28:45;11.65;;;3.00;;
19026;SDS011;9646;52.034;5.554;2022-08-21T09:31:16;9.90;;;3.00;;
19026;SDS011;9646;52.034;5.554;2022-08-21T09:33:47;10.50;;;3.40;;
19026;SDS011;9646;52.034;5.554;2022-08-21T09:36:22;11.57;;;3.28;;
19026;SDS011;9646;52.034;5.554;2022-08-21T09:38:52;10.27;;;4.03;;
19026;SDS011;9646;52.034;5.554;2022-08-21T09:41:25;10.40;;;2.47;;
19026;SDS011;9646;52.034;5.554;2022-08-21T09:43:53;11.77;;;3.15;;
19026;SDS011;9646;52.034;5.554;2022-08-21T09:46:20;11.15;;;2.80;;
19026;SDS011;9646;52.034;5.554;2022-08-21T09:48:49;14.32;;;3.67;;
19026;SDS011;9646;52.034;5.554;2022-08-21T09:51:19;9.93;;;2.55;;
19026;SDS011;9646;52.034;5.554;2022-08-21T09:53:48;9.13;;;2.65;;
19026;SDS011;9646;52.034;5.554;2022-08-21T09:56:18;13.02;;;3.25;;
19026;SDS011;9646;52.034;5.554;2022-08-21T09:59:12;8.70;;;2.42;;
19026;SDS011;9646;52.034;5.554;2022-08-21T10:01:42;8.82;;;3.22;;
19026;SDS011;9646;52.034;5.554;2022-08-21T10:04:09;7.75;;;2.13;;
19026;SDS011;9646;52.034;5.554;2022-08-21T10:06:37;11.88;;;2.75;;
19026;SDS011;9646;52.034;5.554;2022-08-21T10:09:04;8.10;;;2.45;;
19026;SDS011;9646;52.034;5.554;2022-08-21T10:11:34;8.82;;;2.63;;
19026;SDS011;9646;52.034;5.554;2022-08-21T10:14:03;9.60;;;2.58;;
19026;SDS011;9646;52.034;5.554;2022-08-21T10:16:36;9.00;;;2.10;;
19026;SDS011;9646;52.034;5.554;2022-08-21T10:19:08;8.25;;;2.30;;
19026;SDS011;9646;52.034;5.554;2022-08-21T10:21:40;8.48;;;2.45;;
19026;SDS011;9646;52.034;5.554;2022-08-21T10:24:13;8.45;;;2.60;;
19026;SDS011;9646;52.034;5.554;2022-08-21T10:26:47;10.65;;;2.05;;
19026;SDS011;9646;52.034;5.554;2022-08-21T10:29:20;8.77;;;2.10;;
19026;SDS011;9646;52.034;5.554;2022-08-21T10:31:54;7.97;;;2.50;;
19026;SDS011;9646;52.034;5.554;2022-08-21T10:34:27;8.55;;;2.60;;
19026;SDS011;9646;52.034;5.554;2022-08-21T10:37:01;7.80;;;2.10;;
19026;SDS011;9646;52.034;5.554;2022-08-21T10:39:31;10.38;;;2.30;;
19026;SDS011;9646;52.034;5.554;2022-08-21T10:42:06;9.13;;;2.15;;
19026;SDS011;9646;52.034;5.554;2022-08-21T10:44:37;7.20;;;2.08;;
19026;SDS011;9646;52.034;5.554;2022-08-21T10:47:07;8.55;;;2.45;;
19026;SDS011;9646;52.034;5.554;2022-08-21T10:49:38;6.53;;;2.17;;
19026;SDS011;9646;52.034;5.554;2022-08-21T10:52:20;5.32;;;2.15;;
19026;SDS011;9646;52.034;5.554;2022-08-21T10:54:52;8.27;;;2.75;;
19026;SDS011;9646;52.034;5.554;2022-08-21T10:57:29;10.02;;;2.53;;
19026;SDS011;9646;52.034;5.554;2022-08-21T11:00:00;5.97;;;2.63;;
19026;SDS011;9646;52.034;5.554;2022-08-21T11:02:29;9.38;;;2.15;;
19026;SDS011;9646;52.034;5.554;2022-08-21T11:04:59;8.88;;;2.28;;
19026;SDS011;9646;52.034;5.554;2022-08-21T11:07:28;7.95;;;2.20;;
19026;SDS011;9646;52.034;5.554;2022-08-21T11:09:58;7.93;;;2.47;;
19026;SDS011;9646;52.034;5.554;2022-08-21T11:12:30;7.50;;;1.95;;
19026;SDS011;9646;52.034;5.554;2022-08-21T11:14:59;8.30;;;1.98;;
19026;SDS011;9646;52.034;5.554;2022-08-21T11:17:28;6.95;;;1.77;;
19026;SDS011;9646;52.034;5.554;2022-08-21T11:19:59;7.95;;;1.92;;
19026;SDS011;9646;52.034;5.554;2022-08-21T11:22:28;10.40;;;2.17;;
19026;SDS011;9646;52.034;5.554;2022-08-21T11:25:00;7.32;;;2.20;;
19026;SDS011;9646;52.034;5.554;2022-08-21T11:27:33;5.32;;;1.92;;
19026;SDS011;9646;52.034;5.554;2022-08-21T11:30:03;4.45;;;1.52;;
19026;SDS011;9646;52.034;5.554;2022-08-21T11:32:36;6.75;;;1.73;;
19026;SDS011;9646;52.034;5.554;2022-08-21T11:35:08;7.43;;;1.70;;
19026;SDS011;9646;52.034;5.554;2022-08-21T11:37:43;6.40;;;2.50;;
19026;SDS011;9646;52.034;5.554;2022-08-21T11:40:13;8.20;;;2.38;;
19026;SDS011;9646;52.034;5.554;2022-08-21T11:42:44;6.97;;;1.85;;
19026;SDS011;9646;52.034;5.554;2022-08-21T11:45:18;5.22;;;1.70;;
19026;SDS011;9646;52.034;5.554;2022-08-21T11:47:53;9.15;;;1.55;;
19026;SDS011;9646;52.034;5.554;2022-08-21T11:50:21;6.90;;;1.77;;
19026;SDS011;9646;52.034;5.554;2022-08-21T11:52:50;7.53;;;1.48;;
19026;SDS011;9646;52.034;5.554;2022-08-21T11:55:21;7.35;;;1.88;;
19026;SDS011;9646;52.034;5.554;2022-08-21T11:57:52;11.43;;;2.13;;
19026;SDS011;9646;52.034;5.554;2022-08-21T12:00:22;6.85;;;1.67;;
19026;SDS011;9646;52.034;5.554;2022-08-21T12:02:51;5.43;;;1.60;;
19026;SDS011;9646;52.034;5.554;2022-08-21T12:05:23;5.38;;;1.40;;
19026;SDS011;9646;52.034;5.554;2022-08-21T12:08:00;6.93;;;2.00;;
19026;SDS011;9646;52.034;5.554;2022-08-21T12:10:31;7.75;;;2.15;;
19026;SDS011;9646;52.034;5.554;2022-08-21T12:13:06;4.75;;;1.50;;
19026;SDS011;9646;52.034;5.554;2022-08-21T12:15:34;4.53;;;1.85;;
19026;SDS011;9646;52.034;5.554;2022-08-21T12:18:03;6.22;;;1.80;;
19026;SDS011;9646;52.034;5.554;2022-08-21T12:20:41;6.80;;;2.15;;
19026;SDS011;9646;52.034;5.554;2022-08-21T12:23:23;5.60;;;1.67;;
19026;SDS011;9646;52.034;5.554;2022-08-21T12:25:59;8.23;;;1.80;;
19026;SDS011;9646;52.034;5.554;2022-08-21T12:28:28;7.38;;;1.95;;
19026;SDS011;9646;52.034;5.554;2022-08-21T12:30:56;7.93;;;2.03;;
19026;SDS011;9646;52.034;5.554;2022-08-21T12:33:25;5.28;;;2.38;;
19026;SDS011;9646;52.034;5.554;2022-08-21T12:36:01;7.30;;;1.95;;
19026;SDS011;9646;52.034;5.554;2022-08-21T12:38:29;6.32;;;1.88;;
19026;SDS011;9646;52.034;5.554;2022-08-21T12:40:59;8.93;;;2.03;;
19026;SDS011;9646;52.034;5.554;2022-08-21T12:43:30;7.13;;;1.88;;
19026;SDS011;9646;52.034;5.554;2022-08-21T12:45:58;5.57;;;1.70;;
19026;SDS011;9646;52.034;5.554;2022-08-21T12:48:27;8.15;;;2.00;;
19026;SDS011;9646;52.034;5.554;2022-08-21T12:50:57;5.70;;;1.83;;
19026;SDS011;9646;52.034;5.554;2022-08-21T12:53:27;7.28;;;2.15;;
19026;SDS011;9646;52.034;5.554;2022-08-21T12:55:56;5.65;;;1.90;;
19026;SDS011;9646;52.034;5.554;2022-08-21T12:58:27;5.55;;;1.55;;
19026;SDS011;9646;52.034;5.554;2022-08-21T13:00:58;5.00;;;1.77;;
19026;SDS011;9646;52.034;5.554;2022-08-21T13:03:26;5.00;;;1.60;;
19026;SDS011;9646;52.034;5.554;2022-08-21T13:05:53;6.93;;;2.05;;
19026;SDS011;9646;52.034;5.554;2022-08-21T13:08:21;5.55;;;2.00;;
19026;SDS011;9646;52.034;5.554;2022-08-21T13:10:55;6.30;;;1.92;;
19026;SDS011;9646;52.034;5.554;2022-08-21T13:13:24;8.38;;;1.90;;
19026;SDS011;9646;52.034;5.554;2022-08-21T13:15:57;6.75;;;1.67;;
19026;SDS011;9646;52.034;5.554;2022-08-21T13:18:24;4.60;;;1.67;;
19026;SDS011;9646;52.034;5.554;2022-08-21T13:21:01;5.30;;;1.80;;
19026;SDS011;9646;52.034;5.554;2022-08-21T13:23:29;4.95;;;2.03;;
19026;SDS011;9646;52.034;5.554;2022-08-21T13:25:57;3.35;;;1.20;;
19026;SDS011;9646;52.034;5.554;2022-08-21T13:28:33;5.35;;;1.58;;
19026;SDS011;9646;52.034;5.554;2022-08-21T13:31:05;7.07;;;2.10;;
19026;SDS011;9646;52.034;5.554;2022-08-21T13:33:35;4.80;;;1.60;;
19026;SDS011;9646;52.034;5.554;2022-08-21T13:36:04;5.72;;;1.67;;
19026;SDS011;9646;52.034;5.554;2022-08-21T13:38:33;6.35;;;1.70;;
19026;SDS011;9646;52.034;5.554;2022-08-21T13:41:02;5.10;;;1.58;;
19026;SDS011;9646;52.034;5.554;2022-08-21T13:43:31;4.80;;;1.70;;
19026;SDS011;9646;52.034;5.554;2022-08-21T13:45:58;6.57;;;1.63;;
19026;SDS011;9646;52.034;5.554;2022-08-21T13:48:28;6.05;;;1.63;;
19026;SDS011;9646;52.034;5.554;2022-08-21T13:50:56;6.30;;;1.73;;
19026;SDS011;9646;52.034;5.554;2022-08-21T13:53:27;4.30;;;1.52;;
19026;SDS011;9646;52.034;5.554;2022-08-21T13:55:55;7.63;;;1.60;;
19026;SDS011;9646;52.034;5.554;2022-08-21T13:58:26;5.97;;;1.70;;
19026;SDS011;9646;52.034;5.554;2022-08-21T14:00:53;8.27;;;1.75;;
19026;SDS011;9646;52.034;5.554;2022-08-21T14:03:30;4.90;;;1.50;;
19026;SDS011;9646;52.034;5.554;2022-08-21T14:05:57;5.20;;;1.30;;
19026;SDS011;9646;52.034;5.554;2022-08-21T14:08:26;4.03;;;1.10;;
19026;SDS011;9646;52.034;5.554;2022-08-21T14:10:53;4.07;;;1.25;;
19026;SDS011;9646;52.034;5.554;2022-08-21T14:13:24;6.57;;;1.73;;
19026;SDS011;9646;52.034;5.554;2022-08-21T14:15:54;4.50;;;1.52;;
19026;SDS011;9646;52.034;5.554;2022-08-21T14:18:21;4.80;;;1.73;;
19026;SDS011;9646;52.034;5.554;2022-08-21T14:20:52;7.60;;;1.52;;
19026;SDS011;9646;52.034;5.554;2022-08-21T14:23:29;6.78;;;1.70;;
19026;SDS011;9646;52.034;5.554;2022-08-21T14:25:58;6.82;;;1.67;;
19026;SDS011;9646;52.034;5.554;2022-08-21T14:28:26;5.43;;;1.63;;
19026;SDS011;9646;52.034;5.554;2022-08-21T14:30:54;4.43;;;1.50;;
19026;SDS011;9646;52.034;5.554;2022-08-21T14:33:23;7.03;;;1.75;;
19026;SDS011;9646;52.034;5.554;2022-08-21T14:35:53;4.07;;;1.42;;
19026;SDS011;9646;52.034;5.554;2022-08-21T14:38:22;7.20;;;2.15;;
19026;SDS011;9646;52.034;5.554;2022-08-21T14:40:51;10.40;;;1.83;;
19026;SDS011;9646;52.034;5.554;2022-08-21T14:43:18;5.93;;;1.80;;
19026;SDS011;9646;52.034;5.554;2022-08-21T14:45:46;7.38;;;1.92;;
19026;SDS011;9646;52.034;5.554;2022-08-21T14:48:13;4.75;;;1.45;;
19026;SDS011;9646;52.034;5.554;2022-08-21T14:50:40;6.95;;;1.77;;
19026;SDS011;9646;52.034;5.554;2022-08-21T14:53:09;8.07;;;1.50;;
19026;SDS011;9646;52.034;5.554;2022-08-21T14:55:36;6.07;;;1.58;;
19026;SDS011;9646;52.034;5.554;2022-08-21T14:58:17;6.60;;;1.58;;
19026;SDS011;9646;52.034;5.554;2022-08-21T15:00:44;6.38;;;2.13;;
19026;SDS011;9646;52.034;5.554;2022-08-21T15:03:11;5.38;;;1.73;;
19026;SDS011;9646;52.034;5.554;2022-08-21T15:05:38;6.45;;;1.90;;
19026;SDS011;9646;52.034;5.554;2022-08-21T15:08:05;4.93;;;1.70;;